createdAt,value
2019-02-14T00:01:39.187Z,61.11
2019-02-14T00:04:05.226Z,60.52
2019-02-14T00:06:31.245Z,60.52
2019-02-14T00:08:57.367Z,60.69
2019-02-14T00:11:23.434Z,60.68
2019-02-14T00:13:49.415Z,61.11
2019-02-14T00:16:15.358Z,61.11
2019-02-14T00:18:41.583Z,60.91
2019-02-14T00:21:07.555Z,61.09
2019-02-14T00:23:33.429Z,60.99
2019-02-14T00:25:59.379Z,61.38
2019-02-14T00:28:25.491Z,61.25
2019-02-14T00:30:51.571Z,61.55
2019-02-14T00:33:17.663Z,61.63
2019-02-14T00:35:43.536Z,61.06
2019-02-14T00:38:09.465Z,61.21
2019-02-14T00:40:35.415Z,60.99
2019-02-14T00:43:01.387Z,61.03
2019-02-14T00:45:27.435Z,61.05
2019-02-14T00:47:53.717Z,61.26
2019-02-14T00:50:19.704Z,61.66
2019-02-14T00:52:45.851Z,61.66
2019-02-14T00:55:11.779Z,61.50
2019-02-14T00:57:37.897Z,61.64
2019-02-14T01:00:06.092Z,61.64
2019-02-14T01:02:32.227Z,61.65
2019-02-14T01:04:58.258Z,61.65
2019-02-14T01:07:24.223Z,61.35
2019-02-14T01:09:50.200Z,61.35
2019-02-14T01:12:16.401Z,61.69
2019-02-14T01:14:42.469Z,61.60
2019-02-14T01:17:08.616Z,61.60
2019-02-14T01:19:34.692Z,61.74
2019-02-14T01:22:00.676Z,61.77
2019-02-14T01:24:26.808Z,61.77
2019-02-14T01:26:52.778Z,61.73
2019-02-14T01:29:18.787Z,61.73
2019-02-14T01:31:45.185Z,61.99
2019-02-14T01:34:11.227Z,61.86
2019-02-14T01:36:37.102Z,62.02
2019-02-14T01:39:04.669Z,62.02
2019-02-14T01:41:30.583Z,61.71
2019-02-14T01:43:56.554Z,61.71
2019-02-14T01:46:22.524Z,62.31
2019-02-14T01:48:48.586Z,62.43
2019-02-14T01:51:14.461Z,62.29
2019-02-14T01:53:40.464Z,62.18
2019-02-14T01:56:06.437Z,62.00
2019-02-14T01:58:32.586Z,62.71
2019-02-14T02:00:58.603Z,62.42
2019-02-14T02:03:24.526Z,62.42
2019-02-14T02:05:54.588Z,62.75
2019-02-14T02:08:20.685Z,62.45
2019-02-14T02:10:46.841Z,62.50
2019-02-14T02:13:12.774Z,63.04
2019-02-14T02:15:38.817Z,63.04
2019-02-14T02:18:04.897Z,62.71
2019-02-14T02:20:33.392Z,62.69
2019-02-14T02:22:58.871Z,62.84
2019-02-14T02:25:25.004Z,62.84
2019-02-14T02:27:51.032Z,62.82
2019-02-14T02:30:17.033Z,63.21
2019-02-14T02:32:43.057Z,63.21
2019-02-14T02:35:09.184Z,63.46
2019-02-14T02:37:35.161Z,63.43
2019-02-14T02:40:01.298Z,63.61
2019-02-14T02:42:27.401Z,63.43
2019-02-14T02:44:53.392Z,63.51
2019-02-14T02:47:19.415Z,63.29
2019-02-14T02:49:45.452Z,63.40
2019-02-14T02:52:11.490Z,63.23
2019-02-14T02:54:37.520Z,63.33
2019-02-14T02:57:03.654Z,63.22
2019-02-14T02:59:29.691Z,63.16
2019-02-14T03:01:55.625Z,63.05
2019-02-14T03:04:21.545Z,63.19
2019-02-14T03:06:47.666Z,63.24
2019-02-14T03:09:13.708Z,63.12
2019-02-14T03:11:39.734Z,63.12
2019-02-14T03:14:07.728Z,63.46
2019-02-14T03:16:33.611Z,63.46
2019-02-14T03:18:59.556Z,63.61
2019-02-14T03:21:25.659Z,63.34
2019-02-14T03:23:51.637Z,63.73
2019-02-14T03:26:17.839Z,64.07
2019-02-14T03:28:43.925Z,63.93
2019-02-14T03:31:10.059Z,64.04
2019-02-14T03:33:36.057Z,64.17
2019-02-14T03:36:02.042Z,64.24
2019-02-14T03:38:28.365Z,64.10
2019-02-14T03:40:54.575Z,64.25
2019-02-14T03:43:20.632Z,64.42
2019-02-14T03:45:46.737Z,64.18
2019-02-14T03:48:12.893Z,64.17
2019-02-14T03:50:38.932Z,64.05
2019-02-14T03:53:05.029Z,63.83
2019-02-14T03:55:31.111Z,63.84
2019-02-14T03:57:57.082Z,63.60
2019-02-14T04:00:23.121Z,63.47
2019-02-14T04:02:49.247Z,63.55
2019-02-14T04:05:15.389Z,63.87
2019-02-14T04:07:41.350Z,63.60
2019-02-14T04:10:12.290Z,63.32
2019-02-14T04:12:38.480Z,63.60
2019-02-14T04:15:08.190Z,63.44
2019-02-14T04:17:34.247Z,63.39
2019-02-14T04:20:00.318Z,63.70
2019-02-14T04:22:26.397Z,63.70
2019-02-14T04:24:52.379Z,63.55
2019-02-14T04:27:18.339Z,64.01
2019-02-14T04:29:44.381Z,64.03
2019-02-14T04:32:10.295Z,63.94
2019-02-14T04:34:36.368Z,63.90
2019-02-14T04:37:02.413Z,63.89
2019-02-14T04:39:28.508Z,64.23
2019-02-14T04:41:54.533Z,64.23
2019-02-14T04:44:20.480Z,64.18
2019-02-14T04:46:46.432Z,64.16
2019-02-14T04:49:12.479Z,64.53
2019-02-14T04:51:38.504Z,64.38
2019-02-14T04:54:04.455Z,64.32
2019-02-14T04:56:30.527Z,63.97
2019-02-14T04:58:56.583Z,64.52
2019-02-14T05:01:22.534Z,64.42
2019-02-14T05:03:48.449Z,64.70
2019-02-14T05:06:14.470Z,64.69
2019-02-14T05:08:40.446Z,64.98
2019-02-14T05:11:06.337Z,64.80
2019-02-14T05:13:32.294Z,65.14
2019-02-14T05:15:58.231Z,65.07
2019-02-14T05:18:24.279Z,65.61
2019-02-14T05:20:50.189Z,65.55
2019-02-14T05:23:16.159Z,65.29
2019-02-14T05:25:42.146Z,65.14
2019-02-14T05:28:08.059Z,64.65
2019-02-14T05:30:34.126Z,64.99
2019-02-14T05:33:00.272Z,64.47
2019-02-14T05:35:26.383Z,64.75
2019-02-14T05:37:52.419Z,64.79
2019-02-14T05:40:18.440Z,64.87
2019-02-14T05:42:44.573Z,65.14
2019-02-14T05:45:12.008Z,65.29
2019-02-14T05:47:37.890Z,65.07
2019-02-14T05:50:06.749Z,64.87
2019-02-14T05:52:32.689Z,65.05
2019-02-14T05:55:00.627Z,64.99
2019-02-14T05:57:27.408Z,64.41
2019-02-14T05:59:53.554Z,64.28
2019-02-14T06:02:19.584Z,64.56
2019-02-14T06:04:45.499Z,64.58
2019-02-14T06:07:11.463Z,65.01
2019-02-14T06:09:41.328Z,65.07
2019-02-14T06:12:07.247Z,65.63
2019-02-14T06:14:33.224Z,65.38
2019-02-14T06:16:59.139Z,65.39
2019-02-14T06:19:25.148Z,65.61
2019-02-14T06:21:51.189Z,65.41
2019-02-14T06:24:17.207Z,65.58
2019-02-14T06:26:43.298Z,65.45
2019-02-14T06:29:09.219Z,65.52
2019-02-14T06:31:35.213Z,65.81
2019-02-14T06:34:01.199Z,65.59
2019-02-14T06:36:27.220Z,65.85
2019-02-14T06:38:53.371Z,65.82
2019-02-14T06:41:19.358Z,65.50
2019-02-14T06:43:45.239Z,65.35
2019-02-14T06:46:11.260Z,64.99
2019-02-14T06:48:37.205Z,65.18
2019-02-14T06:51:03.280Z,65.13
2019-02-14T06:53:29.401Z,64.76
2019-02-14T06:55:55.274Z,64.59
2019-02-14T06:58:21.632Z,64.64
2019-02-14T07:00:47.708Z,64.65
2019-02-14T07:03:13.655Z,64.33
2019-02-14T07:05:39.752Z,63.57
2019-02-14T07:08:05.698Z,63.94
2019-02-14T07:10:31.921Z,63.84
2019-02-14T07:12:57.903Z,63.56
2019-02-14T07:15:23.908Z,63.08
2019-02-14T07:17:49.870Z,63.07
2019-02-14T07:20:16.254Z,62.80
2019-02-14T07:22:42.260Z,62.73
2019-02-14T07:25:09.929Z,61.95
2019-02-14T07:27:35.871Z,61.94
2019-02-14T07:30:07.559Z,61.89
2019-02-14T07:32:33.502Z,61.86
2019-02-14T07:34:59.480Z,61.86
2019-02-14T07:37:27.065Z,61.51
2019-02-14T07:39:53.205Z,60.72
2019-02-14T07:42:19.206Z,60.72
2019-02-14T07:44:45.309Z,61.56
2019-02-14T07:47:11.268Z,60.18
2019-02-14T07:49:37.156Z,60.09
2019-02-14T07:52:03.287Z,61.73
2019-02-14T07:54:29.164Z,59.74
2019-02-14T07:56:55.150Z,59.73
2019-02-14T07:59:21.100Z,59.70
2019-02-14T08:01:47.270Z,59.38
2019-02-14T08:04:13.215Z,59.03
2019-02-14T08:06:39.154Z,58.37
2019-02-14T08:09:05.515Z,58.31
2019-02-14T08:11:31.663Z,57.89
2019-02-14T08:13:57.577Z,57.49
2019-02-14T08:16:23.595Z,56.52
2019-02-14T08:18:49.631Z,56.89
2019-02-14T08:21:15.702Z,56.93
2019-02-14T08:23:42.149Z,57.40
2019-02-14T08:26:10.766Z,56.13
2019-02-14T08:28:36.227Z,56.40
2019-02-14T08:31:02.328Z,56.51
2019-02-14T08:33:28.282Z,56.60
2019-02-14T08:35:54.324Z,55.91
2019-02-14T08:38:20.187Z,56.20
2019-02-14T08:40:46.194Z,55.89
2019-02-14T08:43:12.029Z,55.09
2019-02-14T08:45:37.950Z,55.10
2019-02-14T08:48:04.291Z,55.00
2019-02-14T08:50:30.307Z,55.06
2019-02-14T08:52:56.301Z,54.88
2019-02-14T08:55:22.424Z,54.92
2019-02-14T08:57:48.387Z,54.30
2019-02-14T09:00:15.556Z,53.88
2019-02-14T09:02:41.500Z,53.31
2019-02-14T09:05:07.958Z,53.32
2019-02-14T09:07:34.190Z,52.88
2019-02-14T09:10:02.327Z,53.30
2019-02-14T09:12:28.261Z,53.03
2019-02-14T09:14:54.265Z,52.61
2019-02-14T09:17:20.301Z,51.95
2019-02-14T09:19:46.343Z,51.34
2019-02-14T09:22:12.387Z,51.91
2019-02-14T09:24:38.341Z,50.74
2019-02-14T09:27:04.224Z,49.36
2019-02-14T09:29:32.255Z,49.59
2019-02-14T09:31:58.331Z,49.07
2019-02-14T09:34:27.291Z,49.02
2019-02-14T09:36:53.252Z,48.25
2019-02-14T09:39:19.118Z,48.33
2019-02-14T09:41:45.069Z,47.97
2019-02-14T09:44:11.043Z,48.13
2019-02-14T09:46:36.972Z,47.48
2019-02-14T09:49:05.914Z,46.88
2019-02-14T09:51:31.996Z,47.24
2019-02-14T09:53:58.034Z,47.19
2019-02-14T09:56:24.147Z,47.73
2019-02-14T09:58:50.302Z,48.19
2019-02-14T10:01:16.302Z,48.50
2019-02-14T10:03:42.369Z,48.37
2019-02-14T10:06:08.518Z,48.57
2019-02-14T10:08:34.515Z,48.92
2019-02-14T10:11:00.524Z,48.48
2019-02-14T10:13:30.193Z,48.64
2019-02-14T10:15:56.096Z,48.20
2019-02-14T10:18:22.149Z,47.97
2019-02-14T10:20:48.248Z,46.22
2019-02-14T10:23:14.334Z,46.27
2019-02-14T10:25:40.327Z,46.26
2019-02-14T10:28:06.272Z,45.90
2019-02-14T10:30:32.283Z,44.50
2019-02-14T10:32:58.306Z,45.47
2019-02-14T10:35:24.159Z,45.54
2019-02-14T10:37:50.109Z,45.67
2019-02-14T10:40:16.389Z,45.02
2019-02-14T10:42:42.357Z,45.09
2019-02-14T10:45:13.591Z,44.30
2019-02-14T10:47:39.670Z,44.14
2019-02-14T10:50:07.930Z,43.28
2019-02-14T10:52:34.143Z,43.15
2019-02-14T10:55:00.056Z,43.07
2019-02-14T10:57:26.087Z,43.05
2019-02-14T10:59:52.238Z,42.71
2019-02-14T11:02:20.738Z,43.41
2019-02-14T11:04:51.646Z,43.97
2019-02-14T11:07:21.104Z,43.38
2019-02-14T11:09:49.140Z,43.47
2019-02-14T11:12:15.135Z,43.77
2019-02-14T11:14:41.482Z,43.92
2019-02-14T11:17:07.603Z,43.60
2019-02-14T11:19:33.521Z,43.28
2019-02-14T11:21:59.445Z,43.70
2019-02-14T11:24:25.444Z,42.81
2019-02-14T11:26:51.490Z,43.57
2019-02-14T11:29:17.510Z,43.81
2019-02-14T11:31:43.498Z,43.82
2019-02-14T11:34:09.483Z,43.40
2019-02-14T11:36:35.432Z,42.93
2019-02-14T11:39:01.401Z,43.18
2019-02-14T11:41:27.371Z,42.70
2019-02-14T11:43:53.405Z,41.60
2019-02-14T11:46:19.521Z,41.76
2019-02-14T11:48:45.512Z,41.07
2019-02-14T11:51:11.489Z,40.73
2019-02-14T11:53:37.521Z,41.18
2019-02-14T11:56:03.517Z,40.65
2019-02-14T11:58:29.569Z,40.22
2019-02-14T12:00:55.744Z,40.44
2019-02-14T12:03:21.714Z,40.49
2019-02-14T12:05:48.119Z,40.43
2019-02-14T12:08:14.129Z,40.81
2019-02-14T12:10:40.015Z,40.18
2019-02-14T12:13:06.030Z,40.33
2019-02-14T12:15:36.107Z,39.61
2019-02-14T12:18:02.208Z,39.67
2019-02-14T12:20:28.480Z,38.86
2019-02-14T12:22:54.570Z,37.51
2019-02-14T12:25:28.543Z,37.44
2019-02-14T12:27:54.597Z,36.15
2019-02-14T12:30:20.570Z,32.12
2019-02-14T12:32:46.490Z,29.75
2019-02-14T12:35:12.648Z,28.46
2019-02-14T12:37:38.680Z,29.25
2019-02-14T12:40:07.730Z,29.46
2019-02-14T12:42:33.641Z,28.18
2019-02-14T12:44:59.516Z,25.92
2019-02-14T12:47:25.619Z,26.67
2019-02-14T12:49:51.516Z,25.31
2019-02-14T12:52:17.611Z,28.63
2019-02-14T12:54:43.547Z,26.94
2019-02-14T12:57:09.596Z,31.00
2019-02-14T12:59:35.571Z,27.51
2019-02-14T13:02:01.658Z,23.10
2019-02-14T13:04:27.608Z,20.29
2019-02-14T13:06:53.682Z,22.57
2019-02-14T13:09:20.448Z,21.93
2019-02-14T13:11:46.427Z,18.82
2019-02-14T13:14:12.361Z,17.88
2019-02-14T13:16:42.592Z,19.70
2019-02-14T13:19:10.044Z,17.75
2019-02-14T13:21:36.038Z,19.65
2019-02-14T13:24:01.940Z,18.65
2019-02-14T13:26:27.949Z,17.48
2019-02-14T13:28:54.016Z,16.96
2019-02-14T13:31:20.027Z,18.37
2019-02-14T13:33:46.026Z,17.53
2019-02-14T13:36:12.010Z,16.53
2019-02-14T13:38:38.027Z,16.01
2019-02-14T13:41:04.088Z,16.65
2019-02-14T13:43:29.948Z,18.19
2019-02-14T13:45:55.815Z,14.42
2019-02-14T13:48:21.790Z,14.45
2019-02-14T13:50:47.843Z,16.31
2019-02-14T13:53:13.841Z,15.23
2019-02-14T13:55:40.020Z,14.78
2019-02-14T13:58:05.883Z,15.28
2019-02-14T14:00:31.901Z,14.51
2019-02-14T14:02:57.903Z,13.73
2019-02-14T14:05:23.786Z,14.25
2019-02-14T14:07:49.905Z,13.64
2019-02-14T14:10:16.027Z,13.78
2019-02-14T14:12:42.535Z,13.50
2019-02-14T14:15:08.775Z,13.25
2019-02-14T14:17:35.437Z,19.02
2019-02-14T14:20:01.631Z,19.27
2019-02-14T14:22:27.516Z,20.74
2019-02-14T14:24:53.425Z,18.05
2019-02-14T14:27:19.466Z,20.14
2019-02-14T14:29:45.345Z,20.64
2019-02-14T14:32:11.309Z,19.08
2019-02-14T14:34:37.230Z,19.33
2019-02-14T14:37:03.131Z,16.97
2019-02-14T14:39:29.010Z,20.77
2019-02-14T14:41:55.065Z,21.52
2019-02-14T14:44:26.065Z,22.92
2019-02-14T14:46:51.998Z,21.13
2019-02-14T14:49:18.115Z,18.15
2019-02-14T14:51:43.942Z,18.10
2019-02-14T14:54:09.931Z,16.83
2019-02-14T14:56:36.080Z,18.47
2019-02-14T14:59:02.188Z,17.17
2019-02-14T15:01:28.078Z,16.07
2019-02-14T15:03:53.986Z,14.29
2019-02-14T15:06:20.017Z,15.25
2019-02-14T15:08:46.056Z,18.26
2019-02-14T15:11:11.951Z,16.60
2019-02-14T15:13:37.956Z,15.41
2019-02-14T15:16:05.913Z,17.73
2019-02-14T15:18:31.898Z,16.71
2019-02-14T15:20:57.817Z,16.46
2019-02-14T15:23:23.713Z,18.16
2019-02-14T15:25:49.953Z,18.30
2019-02-14T15:28:15.886Z,17.94
2019-02-14T15:30:41.959Z,19.29
2019-02-14T15:33:08.014Z,22.09
2019-02-14T15:35:34.043Z,26.58
2019-02-14T15:38:00.019Z,28.32
2019-02-14T15:40:25.942Z,29.89
2019-02-14T15:42:52.121Z,31.08
2019-02-14T15:45:18.373Z,30.96
2019-02-14T15:47:44.308Z,31.26
2019-02-14T15:50:10.333Z,31.23
2019-02-14T15:52:36.429Z,32.78
2019-02-14T15:55:02.736Z,33.33
2019-02-14T15:57:28.790Z,33.16
2019-02-14T15:59:54.695Z,32.97
2019-02-14T16:02:20.832Z,33.61
2019-02-14T16:04:46.775Z,34.30
2019-02-14T16:07:13.236Z,34.98
2019-02-14T16:09:41.250Z,35.27
2019-02-14T16:12:07.203Z,35.38
2019-02-14T16:14:33.158Z,35.23
2019-02-14T16:16:59.226Z,36.23
2019-02-14T16:19:25.117Z,36.71
2019-02-14T16:21:51.904Z,37.38
2019-02-14T16:24:19.155Z,37.74
2019-02-14T16:26:45.093Z,38.22
2019-02-14T16:29:11.170Z,38.33
2019-02-14T16:31:37.293Z,38.76
2019-02-14T16:34:03.170Z,38.73
2019-02-14T16:36:29.304Z,39.52
2019-02-14T16:38:56.472Z,40.61
2019-02-14T16:41:23.052Z,40.73
2019-02-14T16:43:48.949Z,40.78
2019-02-14T16:46:14.930Z,40.59
2019-02-14T16:48:41.007Z,41.15
2019-02-14T16:51:06.928Z,41.83
2019-02-14T16:53:32.832Z,40.79
2019-02-14T16:56:02.120Z,42.45
2019-02-14T16:58:26.827Z,42.91
2019-02-14T17:00:52.836Z,43.34
2019-02-14T17:03:19.269Z,43.49
2019-02-14T17:05:45.299Z,43.92
2019-02-14T17:08:11.257Z,44.84
2019-02-14T17:10:37.426Z,44.34
2019-02-14T17:13:03.391Z,44.53
2019-02-14T17:15:29.255Z,44.29
2019-02-14T17:17:55.194Z,45.68
2019-02-14T17:20:24.876Z,44.89
2019-02-14T17:22:50.810Z,45.35
2019-02-14T17:25:17.371Z,46.17
2019-02-14T17:27:43.422Z,46.19
2019-02-14T17:30:09.535Z,47.02
2019-02-14T17:32:35.552Z,46.83
2019-02-14T17:35:01.867Z,46.54
2019-02-14T17:37:27.955Z,46.23
2019-02-14T17:39:53.823Z,46.82
2019-02-14T17:42:19.701Z,47.13
2019-02-14T17:44:45.684Z,47.79
2019-02-14T17:47:11.706Z,47.99
2019-02-14T17:49:37.738Z,48.63
2019-02-14T17:52:03.614Z,48.86
2019-02-14T17:54:29.600Z,48.71
2019-02-14T17:56:55.633Z,49.31
2019-02-14T17:59:21.712Z,49.28
2019-02-14T18:01:47.579Z,51.32
2019-02-14T18:04:13.483Z,50.73
2019-02-14T18:06:39.462Z,50.76
2019-02-14T18:09:05.520Z,51.51
2019-02-14T18:11:31.471Z,51.28
2019-02-14T18:13:57.438Z,51.25
2019-02-14T18:16:23.393Z,51.09
2019-02-14T18:18:49.258Z,51.25
2019-02-14T18:21:15.296Z,51.40
2019-02-14T18:23:41.259Z,52.06
2019-02-14T18:26:07.351Z,52.57
2019-02-14T18:28:33.339Z,52.25
2019-02-14T18:30:59.308Z,51.83
2019-02-14T18:33:25.441Z,52.59
2019-02-14T18:35:51.306Z,52.86
2019-02-14T18:38:17.232Z,53.18
2019-02-14T18:40:45.136Z,52.56
2019-02-14T18:43:11.063Z,53.49
2019-02-14T18:45:37.087Z,52.77
2019-02-14T18:48:03.186Z,53.88
2019-02-14T18:50:29.163Z,52.76
2019-02-14T18:52:55.187Z,54.03
2019-02-14T18:55:21.267Z,54.03
2019-02-14T18:57:47.163Z,54.62
2019-02-14T19:00:17.398Z,54.42
2019-02-14T19:02:43.596Z,54.78
2019-02-14T19:05:10.291Z,55.51
2019-02-14T19:07:36.238Z,55.08
2019-02-14T19:10:05.417Z,55.25
2019-02-14T19:12:31.266Z,54.58
2019-02-14T19:14:57.231Z,53.93
2019-02-14T19:17:23.192Z,54.30
2019-02-14T19:19:49.090Z,54.09
2019-02-14T19:22:15.109Z,54.17
2019-02-14T19:24:40.983Z,54.92
2019-02-14T19:27:07.173Z,54.93
2019-02-14T19:29:33.211Z,54.91
2019-02-14T19:31:59.207Z,56.06
2019-02-14T19:34:25.059Z,55.32
2019-02-14T19:36:51.135Z,55.48
2019-02-14T19:39:17.030Z,55.82
2019-02-14T19:41:43.122Z,56.22
2019-02-14T19:44:09.039Z,56.45
2019-02-14T19:46:34.910Z,56.30
2019-02-14T19:49:00.924Z,56.40
2019-02-14T19:51:27.263Z,56.66
2019-02-14T19:53:53.168Z,56.33
2019-02-14T19:56:19.063Z,56.62
2019-02-14T19:58:44.968Z,56.59
2019-02-14T20:01:10.969Z,57.03
2019-02-14T20:03:36.879Z,57.52
2019-02-14T20:06:03.017Z,57.55
2019-02-14T20:08:28.884Z,57.34
2019-02-14T20:10:54.881Z,56.68
2019-02-14T20:13:21.229Z,57.63
2019-02-14T20:15:47.581Z,57.08
2019-02-14T20:18:13.886Z,57.72
2019-02-14T20:20:40.315Z,57.69
2019-02-14T20:23:10.065Z,57.56
2019-02-14T20:25:36.519Z,57.57
2019-02-14T20:28:02.998Z,57.91
2019-02-14T20:30:29.547Z,57.54
2019-02-14T20:33:04.440Z,58.00
2019-02-14T20:35:25.218Z,58.08
2019-02-14T20:37:52.185Z,58.60
2019-02-14T20:40:19.419Z,58.73
2019-02-14T20:42:46.715Z,58.42
2019-02-14T20:45:14.506Z,58.48
2019-02-14T20:47:41.720Z,58.41
2019-02-14T20:50:11.041Z,58.75
2019-02-14T20:52:37.817Z,58.92
2019-02-14T20:55:07.538Z,58.80
2019-02-14T20:57:33.891Z,58.67
2019-02-14T20:59:59.912Z,58.90
2019-02-14T21:02:25.760Z,58.81
2019-02-14T21:04:51.764Z,58.02
2019-02-14T21:07:17.767Z,59.00
2019-02-14T21:09:43.753Z,58.57
2019-02-14T21:12:09.766Z,58.42
2019-02-14T21:14:35.931Z,58.69
2019-02-14T21:17:01.796Z,58.98
2019-02-14T21:19:27.823Z,59.09
2019-02-14T21:21:53.724Z,59.05
2019-02-14T21:24:23.845Z,58.99
2019-02-14T21:26:49.908Z,59.57
2019-02-14T21:29:16.094Z,58.61
2019-02-14T21:31:42.015Z,59.05
2019-02-14T21:34:08.050Z,59.57
2019-02-14T21:36:34.757Z,59.54
2019-02-14T21:39:00.788Z,60.36
2019-02-14T21:41:26.786Z,59.51
2019-02-14T21:43:52.773Z,59.78
2019-02-14T21:46:18.697Z,59.73
2019-02-14T21:48:44.700Z,60.57
2019-02-14T21:51:10.849Z,60.38
2019-02-14T21:53:36.919Z,60.96
2019-02-14T21:56:03.044Z,60.57
2019-02-14T21:58:28.973Z,60.84
2019-02-14T22:00:54.946Z,61.81
2019-02-14T22:03:20.819Z,61.87
2019-02-14T22:05:46.844Z,61.37
2019-02-14T22:08:12.850Z,61.78
2019-02-14T22:10:38.849Z,62.05
2019-02-14T22:13:04.895Z,61.91
2019-02-14T22:15:30.891Z,61.55
2019-02-14T22:17:56.874Z,61.46
2019-02-14T22:20:22.962Z,61.60
2019-02-14T22:22:48.887Z,61.46
2019-02-14T22:25:14.963Z,61.82
2019-02-14T22:27:41.089Z,61.39
2019-02-14T22:30:10.914Z,61.78
2019-02-14T22:32:37.033Z,61.75
2019-02-14T22:35:03.261Z,61.98
2019-02-14T22:37:29.371Z,61.98
2019-02-14T22:39:55.268Z,62.43
2019-02-14T22:42:21.295Z,62.23
2019-02-14T22:44:47.274Z,61.60
2019-02-14T22:47:13.162Z,61.48
2019-02-14T22:49:39.075Z,61.92
2019-02-14T22:52:05.115Z,62.23
2019-02-14T22:54:31.297Z,62.06
2019-02-14T22:56:57.377Z,61.61
2019-02-14T22:59:23.586Z,61.32
2019-02-14T23:01:49.812Z,62.03
2019-02-14T23:04:15.906Z,62.03
2019-02-14T23:06:42.039Z,61.71
2019-02-14T23:09:08.783Z,61.74
2019-02-14T23:11:34.776Z,62.07
2019-02-14T23:14:00.839Z,61.98
2019-02-14T23:16:26.784Z,61.74
2019-02-14T23:18:52.809Z,62.04
2019-02-14T23:21:18.821Z,61.69
2019-02-14T23:23:44.725Z,61.75
2019-02-14T23:26:10.859Z,62.03
2019-02-14T23:28:36.768Z,61.76
2019-02-14T23:31:03.046Z,61.75
2019-02-14T23:33:29.040Z,61.55
2019-02-14T23:35:55.034Z,61.34
2019-02-14T23:38:21.019Z,61.74
2019-02-14T23:40:47.051Z,61.68
2019-02-14T23:43:12.929Z,61.82
2019-02-14T23:45:38.799Z,62.18
2019-02-14T23:48:04.924Z,62.03
2019-02-14T23:50:30.916Z,62.36
2019-02-14T23:52:56.885Z,62.92
2019-02-14T23:55:22.915Z,62.94
2019-02-14T23:57:48.820Z,62.64
